Terminal Aerodrome Forecast
Issued by NWS

Home | Current Version | Previous Version | Text Only | Print | Product List | Glossary On
Versions: 1 2 3 4 5 6 7 8 9 10 11 12 13 14 15 16 17 18 19 20 21 22 23 24 25 26
000
FTUS46 KOTX 042334
TAFCOE
TAF
KCOE 042334Z 0500/0524 26009G16KT P6SM FEW050 FEW200
     FM050300 35008G15KT P6SM FEW100
     FM050800 06012KT P6SM SCT090
     FM051200 02020G26KT P6SM FEW050 FEW100
     FM051800 03015KT P6SM FEW050
      AMD LTD TO CLD AND VIS=

USA.gov is the U.S. government's official web portal to all federal, state and local government web resources and services.